createdAt,value
2019-05-10T00:02:47.342Z,8.06
2019-05-10T00:06:13.472Z,7.85
2019-05-10T00:09:19.249Z,7.63
2019-05-10T00:12:44.785Z,7.60
2019-05-10T00:15:52.530Z,7.57
2019-05-10T00:19:00.542Z,7.39
2019-05-10T00:22:08.637Z,7.34
2019-05-10T00:25:16.554Z,7.24
2019-05-10T00:28:24.569Z,7.18
2019-05-10T00:31:32.542Z,7.11
2019-05-10T00:34:40.507Z,7.15
2019-05-10T00:37:48.594Z,7.15
2019-05-10T00:40:56.566Z,7.38
2019-05-10T00:44:04.616Z,7.51
2019-05-10T00:47:12.574Z,7.52
2019-05-10T00:50:20.885Z,7.49
2019-05-10T00:53:29.230Z,7.49
2019-05-10T00:56:38.020Z,7.56
2019-05-10T00:59:45.770Z,7.71
2019-05-10T01:02:54.221Z,7.77
2019-05-10T01:06:03.331Z,7.84
2019-05-10T01:09:14.543Z,7.88
2019-05-10T01:12:22.572Z,7.72
2019-05-10T01:15:30.547Z,8.01
2019-05-10T01:18:38.637Z,8.06
2019-05-10T01:21:46.570Z,8.06
2019-05-10T01:24:54.670Z,7.91
2019-05-10T01:28:02.566Z,7.91
2019-05-10T01:31:10.536Z,8.31
2019-05-10T01:34:18.575Z,8.19
2019-05-10T01:37:26.535Z,8.24
2019-05-10T01:40:34.534Z,8.34
2019-05-10T01:43:42.553Z,8.48
2019-05-10T01:46:50.543Z,8.43
2019-05-10T01:49:58.573Z,8.47
2019-05-10T01:53:06.634Z,8.70
2019-05-10T01:56:14.377Z,8.72
2019-05-10T01:59:22.452Z,8.72
2019-05-10T02:02:29.377Z,8.91
2019-05-10T02:05:37.550Z,8.92
2019-05-10T02:08:45.620Z,9.07
2019-05-10T02:11:53.527Z,9.09
2019-05-10T02:15:01.558Z,9.15
2019-05-10T02:18:09.524Z,9.14
2019-05-10T02:21:17.569Z,9.25
2019-05-10T02:24:26.015Z,8.82
2019-05-10T02:27:34.256Z,8.82
2019-05-10T02:30:42.585Z,9.15
2019-05-10T02:33:50.556Z,8.85
2019-05-10T02:36:58.514Z,8.95
2019-05-10T02:40:07.540Z,8.95
2019-05-10T02:43:15.567Z,9.07
2019-05-10T02:46:23.518Z,9.16
2019-05-10T02:49:31.551Z,9.16
2019-05-10T02:52:39.671Z,9.21
2019-05-10T02:55:48.904Z,9.21
2019-05-10T02:58:59.008Z,9.23
2019-05-10T03:02:08.107Z,8.93
2019-05-10T03:05:16.267Z,9.01
2019-05-10T03:08:24.923Z,9.11
2019-05-10T03:11:49.585Z,8.94
2019-05-10T03:14:59.041Z,8.89
2019-05-10T03:18:07.239Z,8.89
2019-05-10T03:21:15.955Z,8.83
2019-05-10T03:24:27.680Z,8.89
2019-05-10T03:27:34.547Z,8.84
2019-05-10T03:30:42.422Z,9.05
2019-05-10T03:33:56.944Z,9.05
2019-05-10T03:37:00.378Z,8.91
2019-05-10T03:40:08.553Z,8.85
2019-05-10T03:43:16.892Z,8.99
2019-05-10T03:46:24.690Z,8.99
2019-05-10T03:49:32.546Z,8.81
2019-05-10T03:52:40.555Z,8.64
2019-05-10T03:55:48.605Z,8.71
2019-05-10T03:58:56.521Z,8.64
2019-05-10T04:02:04.602Z,8.64
2019-05-10T04:05:13.303Z,8.38
2019-05-10T04:08:21.569Z,8.38
2019-05-10T04:11:29.501Z,8.21
2019-05-10T04:14:37.534Z,8.21
2019-05-10T04:17:49.957Z,8.24
2019-05-10T04:20:55.503Z,8.24
2019-05-10T04:24:03.558Z,8.70
2019-05-10T04:27:29.511Z,8.59
2019-05-10T04:30:21.878Z,8.59
2019-05-10T04:33:30.243Z,8.81
2019-05-10T04:36:38.577Z,8.88
2019-05-10T04:39:46.912Z,9.52
2019-05-10T04:42:54.721Z,9.52
2019-05-10T04:46:02.535Z,9.77
2019-05-10T04:49:10.397Z,9.64
2019-05-10T04:52:17.475Z,9.64
2019-05-10T04:55:25.479Z,9.84
2019-05-10T04:58:33.664Z,9.66
2019-05-10T05:01:41.557Z,9.47
2019-05-10T05:04:50.050Z,9.51
2019-05-10T05:07:57.909Z,9.51
2019-05-10T05:11:06.976Z,9.63
2019-05-10T05:14:15.012Z,9.79
2019-05-10T05:17:23.012Z,9.98
2019-05-10T05:20:30.950Z,10.25
2019-05-10T05:23:38.763Z,10.12
2019-05-10T05:26:49.547Z,10.22
2019-05-10T05:29:57.530Z,10.26
2019-05-10T05:33:05.547Z,10.82
2019-05-10T05:36:13.419Z,11.39
2019-05-10T05:39:20.605Z,11.39
2019-05-10T05:42:29.324Z,11.72
2019-05-10T05:45:37.151Z,12.06
2019-05-10T05:48:45.674Z,11.62
2019-05-10T05:51:53.571Z,12.07
2019-05-10T05:55:01.548Z,11.70
2019-05-10T05:58:25.274Z,11.52
2019-05-10T06:01:26.351Z,11.52
2019-05-10T06:04:30.517Z,11.25
2019-05-10T06:07:39.529Z,11.66
2019-05-10T06:10:56.429Z,11.88
2019-05-10T06:14:03.717Z,11.88
2019-05-10T06:17:09.094Z,11.71
2019-05-10T06:20:17.852Z,12.04
2019-05-10T06:23:29.030Z,11.77
2019-05-10T06:26:35.848Z,11.66
2019-05-10T06:29:43.900Z,11.73
2019-05-10T06:32:53.370Z,12.47
2019-05-10T06:36:02.065Z,13.98
2019-05-10T06:39:10.253Z,14.30
2019-05-10T06:42:18.435Z,13.86
2019-05-10T06:45:26.516Z,13.36
2019-05-10T06:48:34.412Z,15.21
2019-05-10T06:51:48.571Z,15.21
2019-05-10T06:54:51.513Z,15.18
2019-05-10T06:58:00.913Z,15.82
2019-05-10T07:01:08.928Z,16.19
2019-05-10T07:04:17.660Z,17.41
2019-05-10T07:07:42.653Z,16.78
2019-05-10T07:10:35.574Z,14.98
2019-05-10T07:13:47.123Z,14.68
2019-05-10T07:16:56.629Z,14.68
2019-05-10T07:20:03.570Z,14.64
2019-05-10T07:23:11.556Z,14.12
2019-05-10T07:26:24.168Z,14.12
2019-05-10T07:29:41.569Z,13.40
2019-05-10T07:32:42.531Z,13.63
2019-05-10T07:35:50.631Z,13.83
2019-05-10T07:39:02.835Z,13.83
2019-05-10T07:42:12.381Z,14.50
2019-05-10T07:45:25.589Z,14.20
2019-05-10T07:48:29.681Z,13.69
2019-05-10T07:51:38.250Z,13.58
2019-05-10T07:54:47.789Z,13.89
2019-05-10T07:57:59.059Z,14.11
2019-05-10T08:01:06.415Z,14.09
2019-05-10T08:04:21.960Z,13.36
2019-05-10T08:07:24.548Z,14.05
2019-05-10T08:10:32.561Z,15.01
2019-05-10T08:13:40.949Z,14.77
2019-05-10T08:16:51.836Z,14.77
2019-05-10T08:19:58.668Z,14.78
2019-05-10T08:23:06.817Z,14.78
2019-05-10T08:26:21.864Z,14.35
2019-05-10T08:29:25.826Z,13.66
2019-05-10T08:32:34.867Z,13.37
2019-05-10T08:35:46.077Z,13.53
2019-05-10T08:39:05.162Z,13.59
2019-05-10T08:42:13.626Z,13.08
2019-05-10T08:45:12.720Z,13.05
2019-05-10T08:48:23.148Z,13.05
2019-05-10T08:51:32.554Z,13.18
2019-05-10T08:54:42.291Z,14.18
2019-05-10T08:57:52.489Z,14.18
2019-05-10T09:01:16.463Z,14.48
2019-05-10T09:04:13.210Z,14.31
2019-05-10T09:07:19.606Z,14.49
2019-05-10T09:10:27.685Z,13.83
2019-05-10T09:13:40.883Z,14.04
2019-05-10T09:16:56.235Z,14.15
2019-05-10T09:19:56.539Z,14.27
2019-05-10T09:23:08.675Z,13.77
2019-05-10T09:26:16.660Z,13.93
2019-05-10T09:29:27.475Z,13.93
2019-05-10T09:32:35.571Z,13.79
2019-05-10T09:35:47.598Z,15.17
2019-05-10T09:38:53.792Z,15.71
2019-05-10T09:42:08.415Z,15.71
2019-05-10T09:45:12.812Z,16.24
2019-05-10T09:48:22.851Z,15.67
2019-05-10T09:51:33.114Z,16.49
2019-05-10T09:54:41.583Z,15.52
2019-05-10T09:57:49.675Z,14.87
2019-05-10T10:01:12.866Z,14.87
2019-05-10T10:04:07.524Z,15.21
2019-05-10T10:07:18.699Z,15.80
2019-05-10T10:10:30.169Z,14.25
2019-05-10T10:13:43.065Z,15.13
2019-05-10T10:16:57.831Z,14.14
2019-05-10T10:19:57.698Z,15.33
2019-05-10T10:26:26.831Z,14.89
2019-05-10T10:29:36.563Z,14.89
2019-05-10T10:32:47.597Z,14.19
2019-05-10T10:36:04.350Z,14.74
2019-05-10T10:39:07.502Z,14.67
2019-05-10T10:42:17.617Z,13.49
2019-05-10T10:45:24.343Z,13.68
2019-05-10T10:48:32.360Z,12.65
2019-05-10T10:51:40.633Z,12.68
2019-05-10T10:54:48.528Z,12.68
2019-05-10T10:57:57.650Z,13.70
2019-05-10T11:01:10.566Z,13.70
2019-05-10T11:04:17.467Z,14.34
2019-05-10T11:07:25.558Z,14.26
2019-05-10T11:10:34.044Z,13.70
2019-05-10T11:13:45.753Z,13.70
2019-05-10T11:16:52.932Z,13.56
2019-05-10T11:22:27.328Z,13.39
2019-05-10T11:25:34.589Z,12.86
2019-05-10T11:28:44.060Z,12.54
2019-05-10T11:32:11.176Z,12.54
2019-05-10T11:35:05.264Z,13.29
2019-05-10T11:38:16.081Z,13.10
2019-05-10T11:41:24.669Z,13.36
2019-05-10T11:44:31.827Z,14.38
2019-05-10T11:47:40.896Z,14.53
2019-05-10T11:50:51.382Z,14.64
2019-05-10T11:54:02.379Z,14.93
2019-05-10T11:57:13.922Z,15.02
2019-05-10T12:00:31.435Z,15.02
2019-05-10T12:03:37.553Z,15.20
2019-05-10T12:06:49.956Z,15.69
2019-05-10T12:10:08.278Z,15.69
2019-05-10T12:13:15.084Z,15.55
2019-05-10T12:16:16.848Z,15.32
2019-05-10T12:19:23.928Z,14.91
2019-05-10T12:22:37.555Z,14.53
2019-05-10T12:25:58.980Z,14.71
2019-05-10T12:28:52.702Z,14.67
2019-05-10T12:32:01.252Z,15.03
2019-05-10T12:35:11.732Z,14.98
2019-05-10T12:38:18.346Z,15.42
2019-05-10T12:41:26.550Z,16.30
2019-05-10T12:44:38.882Z,17.72
2019-05-10T12:47:44.648Z,17.72
2019-05-10T12:50:58.053Z,18.05
2019-05-10T12:54:02.388Z,17.11
2019-05-10T12:57:09.412Z,17.18
2019-05-10T13:00:19.072Z,16.07
2019-05-10T13:03:31.592Z,16.05
2019-05-10T13:06:39.551Z,14.95
2019-05-10T13:09:50.202Z,13.61
2019-05-10T13:12:59.064Z,13.68
2019-05-10T13:16:09.864Z,13.68
2019-05-10T13:19:20.140Z,13.49
2019-05-10T13:22:36.694Z,13.89
2019-05-10T13:25:37.876Z,13.89
2019-05-10T13:28:47.735Z,13.91
2019-05-10T13:31:56.732Z,13.88
2019-05-10T13:35:05.598Z,14.67
2019-05-10T13:38:13.892Z,16.29
2019-05-10T13:41:23.939Z,16.29
2019-05-10T13:44:36.957Z,16.91
2019-05-10T13:47:43.940Z,17.64
2019-05-10T13:50:53.952Z,18.93
2019-05-10T13:54:05.153Z,18.66
2019-05-10T13:57:12.245Z,18.66
2019-05-10T14:00:20.741Z,17.41
2019-05-10T14:03:43.138Z,18.53
2019-05-10T14:06:40.516Z,18.47
2019-05-10T14:09:47.789Z,18.80
2019-05-10T14:13:02.187Z,19.98
2019-05-10T14:16:07.042Z,19.98
2019-05-10T14:19:22.803Z,20.60
2019-05-10T14:22:29.060Z,17.76
2019-05-10T14:25:38.984Z,18.98
2019-05-10T14:28:53.121Z,18.32
2019-05-10T14:31:58.659Z,19.02
2019-05-10T14:35:07.430Z,18.03
2019-05-10T14:38:15.534Z,18.03
2019-05-10T14:41:23.656Z,18.69
2019-05-10T14:44:31.543Z,18.69
2019-05-10T14:47:47.482Z,16.87
2019-05-10T14:50:48.354Z,16.87
2019-05-10T14:53:58.166Z,18.90
2019-05-10T14:57:07.948Z,18.75
2019-05-10T15:00:16.266Z,19.08
2019-05-10T15:03:24.703Z,20.34
2019-05-10T15:06:37.060Z,20.58
2019-05-10T15:09:43.529Z,21.22
2019-05-10T15:12:51.582Z,22.12
2019-05-10T15:15:59.746Z,21.96
2019-05-10T15:19:08.248Z,21.96
2019-05-10T15:22:18.364Z,21.30
2019-05-10T15:25:26.634Z,22.26
2019-05-10T15:28:40.225Z,21.64
2019-05-10T15:31:44.576Z,21.63
2019-05-10T15:35:05.195Z,22.00
2019-05-10T15:38:03.039Z,22.00
2019-05-10T15:41:11.033Z,20.12
2019-05-10T15:44:19.108Z,20.38
2019-05-10T15:47:27.113Z,20.72
2019-05-10T15:50:38.764Z,20.00
2019-05-10T15:53:45.911Z,20.70
2019-05-10T15:56:55.543Z,20.61
2019-05-10T16:00:03.746Z,19.63
2019-05-10T16:03:12.245Z,18.53
2019-05-10T16:06:20.708Z,18.83
2019-05-10T16:09:28.740Z,18.64
2019-05-10T16:12:37.667Z,18.95
2019-05-10T16:15:51.547Z,18.85
2019-05-10T16:18:57.591Z,18.85
2019-05-10T16:22:05.592Z,17.48
2019-05-10T16:25:13.522Z,17.35
2019-05-10T16:28:22.960Z,16.26
2019-05-10T16:31:31.598Z,16.26
2019-05-10T16:34:39.524Z,16.29
2019-05-10T16:37:47.665Z,16.29
2019-05-10T16:40:59.388Z,16.05
2019-05-10T16:44:05.948Z,16.31
2019-05-10T16:47:13.912Z,15.82
2019-05-10T16:50:26.054Z,16.40
2019-05-10T16:53:32.562Z,16.95
2019-05-10T16:56:41.835Z,17.32
2019-05-10T16:59:51.563Z,17.49
2019-05-10T17:02:59.659Z,16.77
2019-05-10T17:06:07.923Z,16.82
2019-05-10T17:09:18.458Z,16.82
2019-05-10T17:12:27.718Z,16.10
2019-05-10T17:15:40.033Z,15.49
2019-05-10T17:18:44.439Z,14.70
2019-05-10T17:21:58.249Z,14.15
2019-05-10T17:25:08.717Z,14.53
2019-05-10T17:28:18.653Z,14.36
2019-05-10T17:31:29.055Z,13.98
2019-05-10T17:34:37.258Z,14.23
2019-05-10T17:37:46.258Z,14.24
2019-05-10T17:40:56.965Z,14.20
2019-05-10T17:44:05.028Z,14.09
2019-05-10T17:47:14.599Z,14.25
2019-05-10T17:50:22.922Z,13.97
2019-05-10T17:53:33.866Z,13.97
2019-05-10T17:56:41.634Z,13.68
2019-05-10T17:59:52.966Z,13.68
2019-05-10T18:03:00.903Z,13.66
2019-05-10T18:06:23.036Z,13.19
2019-05-10T18:09:21.591Z,13.14
2019-05-10T18:12:30.367Z,12.78
2019-05-10T18:15:40.358Z,12.85
2019-05-10T18:18:49.042Z,12.85
2019-05-10T18:22:00.702Z,12.82
2019-05-10T18:25:06.610Z,11.90
2019-05-10T18:28:19.060Z,11.56
2019-05-10T18:31:24.908Z,11.56
2019-05-10T18:34:35.395Z,11.54
2019-05-10T18:37:44.611Z,11.44
2019-05-10T18:40:53.683Z,10.85
2019-05-10T18:44:01.684Z,10.85
2019-05-10T18:47:10.590Z,10.67
2019-05-10T18:50:18.938Z,10.16
2019-05-10T18:53:27.254Z,10.16
2019-05-10T18:56:35.685Z,9.79
2019-05-10T18:59:45.538Z,9.84
2019-05-10T19:02:55.333Z,9.66
2019-05-10T19:06:10.771Z,9.22
2019-05-10T19:09:14.657Z,9.22
2019-05-10T19:12:25.630Z,9.15
2019-05-10T19:15:36.403Z,9.05
2019-05-10T19:18:43.662Z,8.93
2019-05-10T19:21:55.275Z,8.73
2019-05-10T19:25:10.983Z,8.73
2019-05-10T19:28:15.477Z,8.67
2019-05-10T19:31:23.029Z,8.63
2019-05-10T19:34:31.051Z,8.55
2019-05-10T19:37:41.142Z,8.48
2019-05-10T19:40:49.791Z,8.35
2019-05-10T19:44:02.716Z,8.31
2019-05-10T19:47:11.157Z,8.17
2019-05-10T19:50:28.327Z,8.01
2019-05-10T19:53:31.655Z,7.93
2019-05-10T19:56:41.406Z,7.88
2019-05-10T19:59:50.326Z,7.78
2019-05-10T20:03:02.905Z,7.69
2019-05-10T20:06:11.268Z,7.58
2019-05-10T20:09:19.458Z,7.39
2019-05-10T20:12:28.101Z,7.23
2019-05-10T20:15:40.910Z,7.23
2019-05-10T20:18:49.556Z,7.14
2019-05-10T20:21:57.617Z,6.91
2019-05-10T20:25:08.515Z,6.91
2019-05-10T20:28:20.715Z,7.00
2019-05-10T20:31:30.680Z,6.94
2019-05-10T20:34:42.639Z,6.90
2019-05-10T20:38:01.437Z,6.87
2019-05-10T20:41:01.058Z,6.81
2019-05-10T20:44:10.014Z,6.75
2019-05-10T20:47:20.866Z,6.78
2019-05-10T20:50:28.566Z,6.33
2019-05-10T20:53:36.752Z,6.33
2019-05-10T20:56:45.288Z,6.56
2019-05-10T20:59:54.871Z,6.53
2019-05-10T21:03:03.236Z,6.46
2019-05-10T21:06:11.582Z,6.48
2019-05-10T21:09:21.564Z,6.37
2019-05-10T21:12:29.719Z,6.31
2019-05-10T21:15:37.914Z,6.31
2019-05-10T21:18:46.469Z,6.27
2019-05-10T21:21:55.566Z,6.33
2019-05-10T21:25:04.620Z,6.34
2019-05-10T21:28:14.662Z,6.43
2019-05-10T21:31:22.903Z,6.43
2019-05-10T21:34:32.135Z,6.48
2019-05-10T21:37:40.577Z,6.65
2019-05-10T21:40:48.587Z,6.60
2019-05-10T21:43:56.639Z,6.67
2019-05-10T21:47:04.517Z,6.65
2019-05-10T21:50:12.610Z,6.71
2019-05-10T21:53:21.263Z,6.68
2019-05-10T21:56:29.688Z,6.68
2019-05-10T21:59:39.010Z,6.83
2019-05-10T22:02:47.367Z,6.88
2019-05-10T22:05:57.859Z,6.95
2019-05-10T22:09:09.455Z,6.68
2019-05-10T22:12:17.393Z,6.84
2019-05-10T22:15:25.599Z,6.89
2019-05-10T22:18:34.056Z,6.86
2019-05-10T22:21:43.908Z,6.83
2019-05-10T22:24:52.086Z,6.84
2019-05-10T22:28:00.285Z,6.81
2019-05-10T22:31:09.411Z,6.75
2019-05-10T22:34:16.398Z,6.86
2019-05-10T22:37:24.559Z,6.84
2019-05-10T22:40:32.422Z,6.57
2019-05-10T22:43:39.445Z,6.57
2019-05-10T22:46:47.400Z,6.76
2019-05-10T22:49:55.679Z,6.74
2019-05-10T22:53:03.560Z,6.82
2019-05-10T22:56:11.589Z,6.78
2019-05-10T22:59:19.889Z,6.78
2019-05-10T23:02:27.628Z,6.61
2019-05-10T23:05:35.632Z,6.72
2019-05-10T23:08:43.586Z,6.72
2019-05-10T23:11:52.260Z,6.62
2019-05-10T23:15:00.560Z,6.62
2019-05-10T23:18:10.551Z,6.67
2019-05-10T23:21:18.933Z,6.51
2019-05-10T23:24:37.695Z,6.51
2019-05-10T23:27:45.562Z,6.61
2019-05-10T23:30:53.676Z,6.43
2019-05-10T23:34:01.923Z,6.43
2019-05-10T23:37:10.005Z,6.51
2019-05-10T23:40:17.684Z,6.50
2019-05-10T23:43:25.612Z,6.56
2019-05-10T23:46:34.273Z,6.41
2019-05-10T23:49:42.531Z,6.41
2019-05-10T23:52:50.575Z,6.47
2019-05-10T23:55:58.399Z,6.43
2019-05-10T23:59:05.327Z,6.43
